sensor_id;sensor_type;location;lat;lon;timestamp;P1;durP1;ratioP1;P2;durP2;ratioP2
19004;SDS011;9635;52.078;8.648;2023-03-01T00:00:11;13.75;;;8.35;;
19004;SDS011;9635;52.078;8.648;2023-03-01T00:05:16;10.98;;;7.47;;
19004;SDS011;9635;52.078;8.648;2023-03-01T00:10:19;16.92;;;10.10;;
19004;SDS011;9635;52.078;8.648;2023-03-01T00:15:22;17.83;;;10.13;;
19004;SDS011;9635;52.078;8.648;2023-03-01T00:20:26;17.92;;;10.80;;
19004;SDS011;9635;52.078;8.648;2023-03-01T00:25:29;19.40;;;10.18;;
19004;SDS011;9635;52.078;8.648;2023-03-01T00:30:32;18.30;;;9.88;;
19004;SDS011;9635;52.078;8.648;2023-03-01T00:35:36;19.45;;;10.38;;
19004;SDS011;9635;52.078;8.648;2023-03-01T00:40:39;19.00;;;10.10;;
19004;SDS011;9635;52.078;8.648;2023-03-01T00:45:42;20.15;;;11.18;;
19004;SDS011;9635;52.078;8.648;2023-03-01T00:50:46;15.82;;;10.38;;
19004;SDS011;9635;52.078;8.648;2023-03-01T00:55:49;16.63;;;9.48;;
19004;SDS011;9635;52.078;8.648;2023-03-01T01:00:52;21.63;;;9.80;;
19004;SDS011;9635;52.078;8.648;2023-03-01T01:05:56;20.15;;;9.52;;
19004;SDS011;9635;52.078;8.648;2023-03-01T01:10:59;15.32;;;9.50;;
19004;SDS011;9635;52.078;8.648;2023-03-01T01:16:02;15.93;;;10.25;;
19004;SDS011;9635;52.078;8.648;2023-03-01T01:21:07;20.23;;;10.35;;
19004;SDS011;9635;52.078;8.648;2023-03-01T01:26:12;18.45;;;11.50;;
19004;SDS011;9635;52.078;8.648;2023-03-01T01:31:17;19.77;;;11.05;;
19004;SDS011;9635;52.078;8.648;2023-03-01T01:36:23;22.30;;;10.95;;
19004;SDS011;9635;52.078;8.648;2023-03-01T01:41:26;19.30;;;11.10;;
19004;SDS011;9635;52.078;8.648;2023-03-01T01:46:30;19.27;;;10.32;;
19004;SDS011;9635;52.078;8.648;2023-03-01T01:51:37;19.08;;;11.05;;
19004;SDS011;9635;52.078;8.648;2023-03-01T01:56:46;15.52;;;10.23;;
19004;SDS011;9635;52.078;8.648;2023-03-01T02:01:54;13.82;;;9.57;;
19004;SDS011;9635;52.078;8.648;2023-03-01T02:06:59;18.48;;;10.05;;
19004;SDS011;9635;52.078;8.648;2023-03-01T02:12:05;19.40;;;9.82;;
19004;SDS011;9635;52.078;8.648;2023-03-01T02:17:08;20.90;;;11.43;;
19004;SDS011;9635;52.078;8.648;2023-03-01T02:22:15;16.27;;;9.65;;
19004;SDS011;9635;52.078;8.648;2023-03-01T02:32:35;17.00;;;11.25;;
19004;SDS011;9635;52.078;8.648;2023-03-01T02:37:38;25.35;;;11.50;;
19004;SDS011;9635;52.078;8.648;2023-03-01T02:42:43;19.63;;;11.10;;
19004;SDS011;9635;52.078;8.648;2023-03-01T02:47:54;17.40;;;11.27;;
19004;SDS011;9635;52.078;8.648;2023-03-01T02:53:01;20.17;;;11.65;;
19004;SDS011;9635;52.078;8.648;2023-03-01T02:58:10;20.63;;;11.63;;
19004;SDS011;9635;52.078;8.648;2023-03-01T03:03:15;18.13;;;11.05;;
19004;SDS011;9635;52.078;8.648;2023-03-01T03:08:19;28.23;;;12.20;;
19004;SDS011;9635;52.078;8.648;2023-03-01T03:13:26;18.95;;;11.52;;
19004;SDS011;9635;52.078;8.648;2023-03-01T03:18:31;22.85;;;12.48;;
19004;SDS011;9635;52.078;8.648;2023-03-01T03:23:34;22.20;;;12.45;;
19004;SDS011;9635;52.078;8.648;2023-03-01T03:28:37;21.02;;;12.52;;
19004;SDS011;9635;52.078;8.648;2023-03-01T03:33:42;18.42;;;11.77;;
19004;SDS011;9635;52.078;8.648;2023-03-01T03:38:45;21.88;;;12.43;;
19004;SDS011;9635;52.078;8.648;2023-03-01T03:43:50;18.23;;;11.77;;
19004;SDS011;9635;52.078;8.648;2023-03-01T03:48:54;19.92;;;12.02;;
19004;SDS011;9635;52.078;8.648;2023-03-01T03:53:56;18.25;;;12.00;;
19004;SDS011;9635;52.078;8.648;2023-03-01T03:58:59;21.77;;;12.02;;
19004;SDS011;9635;52.078;8.648;2023-03-01T04:04:04;21.83;;;12.25;;
19004;SDS011;9635;52.078;8.648;2023-03-01T04:09:09;19.67;;;12.50;;
19004;SDS011;9635;52.078;8.648;2023-03-01T04:14:11;21.75;;;12.32;;
19004;SDS011;9635;52.078;8.648;2023-03-01T04:19:15;22.02;;;12.75;;
19004;SDS011;9635;52.078;8.648;2023-03-01T04:24:18;24.42;;;12.93;;
19004;SDS011;9635;52.078;8.648;2023-03-01T04:29:21;21.05;;;11.73;;
19004;SDS011;9635;52.078;8.648;2023-03-01T04:34:25;24.27;;;13.25;;
19004;SDS011;9635;52.078;8.648;2023-03-01T04:39:28;25.85;;;12.32;;
19004;SDS011;9635;52.078;8.648;2023-03-01T04:44:31;23.13;;;13.15;;
19004;SDS011;9635;52.078;8.648;2023-03-01T04:49:35;27.30;;;14.30;;
19004;SDS011;9635;52.078;8.648;2023-03-01T04:54:38;30.30;;;14.52;;
19004;SDS011;9635;52.078;8.648;2023-03-01T04:59:41;25.13;;;13.38;;
19004;SDS011;9635;52.078;8.648;2023-03-01T05:04:46;20.33;;;13.02;;
19004;SDS011;9635;52.078;8.648;2023-03-01T05:09:49;23.38;;;13.45;;
19004;SDS011;9635;52.078;8.648;2023-03-01T05:14:55;26.25;;;12.23;;
19004;SDS011;9635;52.078;8.648;2023-03-01T05:19:59;19.95;;;12.07;;
19004;SDS011;9635;52.078;8.648;2023-03-01T05:25:02;22.35;;;12.85;;
19004;SDS011;9635;52.078;8.648;2023-03-01T05:30:06;23.08;;;13.10;;
19004;SDS011;9635;52.078;8.648;2023-03-01T05:35:17;21.38;;;12.95;;
19004;SDS011;9635;52.078;8.648;2023-03-01T05:40:21;28.48;;;13.23;;
19004;SDS011;9635;52.078;8.648;2023-03-01T05:45:26;26.25;;;13.23;;
19004;SDS011;9635;52.078;8.648;2023-03-01T05:50:32;23.95;;;12.57;;
19004;SDS011;9635;52.078;8.648;2023-03-01T05:55:36;22.90;;;13.25;;
19004;SDS011;9635;52.078;8.648;2023-03-01T06:00:40;36.75;;;13.35;;
19004;SDS011;9635;52.078;8.648;2023-03-01T06:05:44;28.25;;;13.20;;
19004;SDS011;9635;52.078;8.648;2023-03-01T06:10:47;28.10;;;13.93;;
19004;SDS011;9635;52.078;8.648;2023-03-01T06:15:50;28.10;;;14.13;;
19004;SDS011;9635;52.078;8.648;2023-03-01T06:20:55;27.35;;;14.88;;
19004;SDS011;9635;52.078;8.648;2023-03-01T06:25:58;26.58;;;15.43;;
19004;SDS011;9635;52.078;8.648;2023-03-01T06:31:02;31.20;;;14.77;;
19004;SDS011;9635;52.078;8.648;2023-03-01T06:36:07;25.88;;;14.38;;
19004;SDS011;9635;52.078;8.648;2023-03-01T06:41:11;25.00;;;14.45;;
19004;SDS011;9635;52.078;8.648;2023-03-01T06:46:14;29.15;;;14.10;;
19004;SDS011;9635;52.078;8.648;2023-03-01T06:51:18;25.58;;;14.45;;
19004;SDS011;9635;52.078;8.648;2023-03-01T06:56:21;26.67;;;13.90;;
19004;SDS011;9635;52.078;8.648;2023-03-01T07:01:24;26.00;;;16.17;;
19004;SDS011;9635;52.078;8.648;2023-03-01T07:06:28;22.48;;;18.70;;
19004;SDS011;9635;52.078;8.648;2023-03-01T07:11:32;18.30;;;10.30;;
19004;SDS011;9635;52.078;8.648;2023-03-01T07:16:35;20.13;;;10.77;;
19004;SDS011;9635;52.078;8.648;2023-03-01T07:21:39;19.55;;;10.80;;
19004;SDS011;9635;52.078;8.648;2023-03-01T07:26:42;20.45;;;12.50;;
19004;SDS011;9635;52.078;8.648;2023-03-01T07:31:44;21.88;;;13.23;;
19004;SDS011;9635;52.078;8.648;2023-03-01T07:36:49;27.00;;;15.15;;
19004;SDS011;9635;52.078;8.648;2023-03-01T07:41:52;30.27;;;15.50;;
19004;SDS011;9635;52.078;8.648;2023-03-01T07:46:56;26.85;;;15.15;;
19004;SDS011;9635;52.078;8.648;2023-03-01T07:52:00;30.70;;;15.02;;
19004;SDS011;9635;52.078;8.648;2023-03-01T07:57:03;22.25;;;13.63;;
19004;SDS011;9635;52.078;8.648;2023-03-01T08:02:06;26.83;;;14.32;;
19004;SDS011;9635;52.078;8.648;2023-03-01T08:07:12;21.55;;;13.13;;
19004;SDS011;9635;52.078;8.648;2023-03-01T08:12:15;25.52;;;14.27;;
19004;SDS011;9635;52.078;8.648;2023-03-01T08:17:18;19.83;;;11.95;;
19004;SDS011;9635;52.078;8.648;2023-03-01T08:22:22;28.20;;;13.00;;
19004;SDS011;9635;52.078;8.648;2023-03-01T08:27:24;21.15;;;12.95;;
19004;SDS011;9635;52.078;8.648;2023-03-01T08:32:27;22.90;;;13.57;;
19004;SDS011;9635;52.078;8.648;2023-03-01T08:37:31;22.58;;;13.07;;
19004;SDS011;9635;52.078;8.648;2023-03-01T08:42:34;21.88;;;13.50;;
19004;SDS011;9635;52.078;8.648;2023-03-01T08:47:37;24.33;;;13.63;;
19004;SDS011;9635;52.078;8.648;2023-03-01T08:52:41;21.25;;;13.98;;
19004;SDS011;9635;52.078;8.648;2023-03-01T08:57:44;20.70;;;13.18;;
19004;SDS011;9635;52.078;8.648;2023-03-01T09:02:47;21.48;;;12.90;;
19004;SDS011;9635;52.078;8.648;2023-03-01T09:07:51;20.33;;;12.95;;
19004;SDS011;9635;52.078;8.648;2023-03-01T09:12:54;22.50;;;13.65;;
19004;SDS011;9635;52.078;8.648;2023-03-01T09:17:57;27.60;;;13.98;;
19004;SDS011;9635;52.078;8.648;2023-03-01T09:23:01;22.10;;;13.52;;
19004;SDS011;9635;52.078;8.648;2023-03-01T09:28:04;20.60;;;12.35;;
19004;SDS011;9635;52.078;8.648;2023-03-01T09:33:07;23.05;;;11.77;;
19004;SDS011;9635;52.078;8.648;2023-03-01T09:38:17;21.23;;;12.88;;
19004;SDS011;9635;52.078;8.648;2023-03-01T09:43:21;20.35;;;12.63;;
19004;SDS011;9635;52.078;8.648;2023-03-01T09:48:29;16.33;;;8.52;;
19004;SDS011;9635;52.078;8.648;2023-03-01T09:53:40;15.52;;;9.20;;
19004;SDS011;9635;52.078;8.648;2023-03-01T09:58:46;14.55;;;8.95;;
19004;SDS011;9635;52.078;8.648;2023-03-01T10:03:58;13.35;;;9.13;;
19004;SDS011;9635;52.078;8.648;2023-03-01T10:09:10;14.32;;;9.05;;
19004;SDS011;9635;52.078;8.648;2023-03-01T10:14:18;13.57;;;8.13;;
19004;SDS011;9635;52.078;8.648;2023-03-01T10:19:32;14.50;;;7.38;;
19004;SDS011;9635;52.078;8.648;2023-03-01T10:24:40;11.18;;;6.97;;
19004;SDS011;9635;52.078;8.648;2023-03-01T10:29:45;12.98;;;7.28;;
19004;SDS011;9635;52.078;8.648;2023-03-01T10:34:51;13.70;;;7.97;;
19004;SDS011;9635;52.078;8.648;2023-03-01T10:39:56;14.30;;;8.32;;
19004;SDS011;9635;52.078;8.648;2023-03-01T10:45:16;13.38;;;7.25;;
19004;SDS011;9635;52.078;8.648;2023-03-01T10:50:29;14.15;;;7.93;;
19004;SDS011;9635;52.078;8.648;2023-03-01T10:55:34;12.38;;;6.68;;
19004;SDS011;9635;52.078;8.648;2023-03-01T11:00:45;10.73;;;7.03;;
19004;SDS011;9635;52.078;8.648;2023-03-01T11:05:51;9.73;;;6.30;;
19004;SDS011;9635;52.078;8.648;2023-03-01T11:11:07;8.88;;;5.70;;
19004;SDS011;9635;52.078;8.648;2023-03-01T11:16:26;11.13;;;6.15;;
19004;SDS011;9635;52.078;8.648;2023-03-01T11:21:32;12.25;;;5.95;;
19004;SDS011;9635;52.078;8.648;2023-03-01T11:26:39;9.93;;;6.63;;
19004;SDS011;9635;52.078;8.648;2023-03-01T11:31:45;9.85;;;6.20;;
19004;SDS011;9635;52.078;8.648;2023-03-01T11:36:58;7.93;;;5.75;;
19004;SDS011;9635;52.078;8.648;2023-03-01T11:42:06;9.45;;;5.97;;
19004;SDS011;9635;52.078;8.648;2023-03-01T11:47:22;9.95;;;5.75;;
19004;SDS011;9635;52.078;8.648;2023-03-01T11:52:37;7.63;;;5.65;;
19004;SDS011;9635;52.078;8.648;2023-03-01T12:03:27;6.88;;;5.68;;
19004;SDS011;9635;52.078;8.648;2023-03-01T12:08:34;8.07;;;5.93;;
19004;SDS011;9635;52.078;8.648;2023-03-01T12:13:51;7.82;;;5.40;;
19004;SDS011;9635;52.078;8.648;2023-03-01T12:19:08;7.43;;;5.55;;
19004;SDS011;9635;52.078;8.648;2023-03-01T12:24:33;9.98;;;5.82;;
19004;SDS011;9635;52.078;8.648;2023-03-01T12:29:46;6.93;;;5.28;;
19004;SDS011;9635;52.078;8.648;2023-03-01T12:35:05;9.63;;;5.95;;
19004;SDS011;9635;52.078;8.648;2023-03-01T12:40:33;8.50;;;5.63;;
19004;SDS011;9635;52.078;8.648;2023-03-01T12:45:50;7.35;;;5.30;;
19004;SDS011;9635;52.078;8.648;2023-03-01T12:51:04;12.48;;;5.75;;
19004;SDS011;9635;52.078;8.648;2023-03-01T12:56:12;8.30;;;5.18;;
19004;SDS011;9635;52.078;8.648;2023-03-01T13:01:22;7.03;;;5.07;;
19004;SDS011;9635;52.078;8.648;2023-03-01T13:06:37;7.15;;;5.13;;
19004;SDS011;9635;52.078;8.648;2023-03-01T13:11:44;8.15;;;5.80;;
19004;SDS011;9635;52.078;8.648;2023-03-01T13:16:48;8.02;;;5.43;;
19004;SDS011;9635;52.078;8.648;2023-03-01T13:21:53;8.35;;;5.68;;
19004;SDS011;9635;52.078;8.648;2023-03-01T13:27:21;7.32;;;5.68;;
19004;SDS011;9635;52.078;8.648;2023-03-01T13:32:31;8.38;;;5.00;;
19004;SDS011;9635;52.078;8.648;2023-03-01T13:37:45;9.15;;;5.13;;
19004;SDS011;9635;52.078;8.648;2023-03-01T13:42:48;5.88;;;4.80;;
19004;SDS011;9635;52.078;8.648;2023-03-01T13:48:10;7.22;;;5.10;;
19004;SDS011;9635;52.078;8.648;2023-03-01T13:53:18;8.35;;;5.18;;
19004;SDS011;9635;52.078;8.648;2023-03-01T13:58:24;8.50;;;5.03;;
19004;SDS011;9635;52.078;8.648;2023-03-01T14:03:30;9.45;;;4.88;;
19004;SDS011;9635;52.078;8.648;2023-03-01T14:08:35;6.43;;;4.78;;
19004;SDS011;9635;52.078;8.648;2023-03-01T14:13:43;6.80;;;5.20;;
19004;SDS011;9635;52.078;8.648;2023-03-01T14:18:57;9.13;;;5.80;;
19004;SDS011;9635;52.078;8.648;2023-03-01T14:24:16;4.82;;;3.70;;
19004;SDS011;9635;52.078;8.648;2023-03-01T14:29:24;6.63;;;3.95;;
19004;SDS011;9635;52.078;8.648;2023-03-01T14:34:30;4.95;;;4.00;;
19004;SDS011;9635;52.078;8.648;2023-03-01T14:39:32;5.15;;;3.50;;
19004;SDS011;9635;52.078;8.648;2023-03-01T14:44:35;7.82;;;3.83;;
19004;SDS011;9635;52.078;8.648;2023-03-01T14:49:40;8.18;;;3.70;;
19004;SDS011;9635;52.078;8.648;2023-03-01T14:54:44;5.63;;;3.60;;
19004;SDS011;9635;52.078;8.648;2023-03-01T14:59:50;7.68;;;4.22;;
19004;SDS011;9635;52.078;8.648;2023-03-01T15:04:57;5.38;;;3.58;;
19004;SDS011;9635;52.078;8.648;2023-03-01T15:10:03;6.18;;;3.63;;
19004;SDS011;9635;52.078;8.648;2023-03-01T15:15:22;5.95;;;3.90;;
19004;SDS011;9635;52.078;8.648;2023-03-01T15:20:37;7.18;;;4.43;;
19004;SDS011;9635;52.078;8.648;2023-03-01T15:25:43;5.72;;;3.70;;
19004;SDS011;9635;52.078;8.648;2023-03-01T15:30:51;6.28;;;3.38;;
19004;SDS011;9635;52.078;8.648;2023-03-01T15:35:59;4.72;;;3.40;;
19004;SDS011;9635;52.078;8.648;2023-03-01T15:41:03;6.95;;;3.85;;
19004;SDS011;9635;52.078;8.648;2023-03-01T15:46:17;5.85;;;3.72;;
19004;SDS011;9635;52.078;8.648;2023-03-01T15:51:30;7.13;;;4.00;;
19004;SDS011;9635;52.078;8.648;2023-03-01T15:56:35;7.28;;;3.95;;
19004;SDS011;9635;52.078;8.648;2023-03-01T16:06:42;8.10;;;4.72;;
19004;SDS011;9635;52.078;8.648;2023-03-01T16:11:45;6.30;;;3.97;;
19004;SDS011;9635;52.078;8.648;2023-03-01T16:16:47;6.40;;;4.20;;
19004;SDS011;9635;52.078;8.648;2023-03-01T16:21:52;6.10;;;4.07;;
19004;SDS011;9635;52.078;8.648;2023-03-01T16:26:55;6.95;;;3.97;;
19004;SDS011;9635;52.078;8.648;2023-03-01T16:31:59;4.72;;;3.25;;
19004;SDS011;9635;52.078;8.648;2023-03-01T16:37:04;7.15;;;3.88;;
19004;SDS011;9635;52.078;8.648;2023-03-01T16:42:06;6.00;;;4.03;;
19004;SDS011;9635;52.078;8.648;2023-03-01T16:47:09;7.45;;;4.40;;
19004;SDS011;9635;52.078;8.648;2023-03-01T16:52:13;5.32;;;4.30;;
19004;SDS011;9635;52.078;8.648;2023-03-01T16:57:16;6.93;;;4.40;;
19004;SDS011;9635;52.078;8.648;2023-03-01T17:02:22;6.60;;;4.22;;
19004;SDS011;9635;52.078;8.648;2023-03-01T17:07:26;10.65;;;4.55;;
19004;SDS011;9635;52.078;8.648;2023-03-01T17:12:29;9.18;;;5.10;;
19004;SDS011;9635;52.078;8.648;2023-03-01T17:17:33;6.43;;;4.47;;
19004;SDS011;9635;52.078;8.648;2023-03-01T17:22:38;10.27;;;4.90;;
19004;SDS011;9635;52.078;8.648;2023-03-01T17:27:41;11.82;;;6.15;;
19004;SDS011;9635;52.078;8.648;2023-03-01T17:32:44;14.88;;;7.20;;
19004;SDS011;9635;52.078;8.648;2023-03-01T17:37:48;12.27;;;5.85;;
19004;SDS011;9635;52.078;8.648;2023-03-01T17:42:51;13.05;;;7.25;;
19004;SDS011;9635;52.078;8.648;2023-03-01T17:47:54;11.35;;;7.65;;
19004;SDS011;9635;52.078;8.648;2023-03-01T17:52:58;12.05;;;6.78;;
19004;SDS011;9635;52.078;8.648;2023-03-01T17:58:02;9.23;;;6.80;;
19004;SDS011;9635;52.078;8.648;2023-03-01T18:03:05;21.85;;;11.18;;
19004;SDS011;9635;52.078;8.648;2023-03-01T18:08:10;16.17;;;8.75;;
19004;SDS011;9635;52.078;8.648;2023-03-01T18:13:12;13.70;;;7.28;;
19004;SDS011;9635;52.078;8.648;2023-03-01T18:18:15;15.55;;;8.50;;
19004;SDS011;9635;52.078;8.648;2023-03-01T18:23:19;18.05;;;8.45;;
19004;SDS011;9635;52.078;8.648;2023-03-01T18:28:23;17.67;;;8.70;;
19004;SDS011;9635;52.078;8.648;2023-03-01T18:33:26;12.90;;;8.25;;
19004;SDS011;9635;52.078;8.648;2023-03-01T18:38:31;16.88;;;8.93;;
19004;SDS011;9635;52.078;8.648;2023-03-01T18:43:34;20.85;;;11.05;;
19004;SDS011;9635;52.078;8.648;2023-03-01T18:48:37;21.90;;;12.05;;
19004;SDS011;9635;52.078;8.648;2023-03-01T18:53:41;25.70;;;14.15;;
19004;SDS011;9635;52.078;8.648;2023-03-01T18:58:44;34.65;;;15.68;;
19004;SDS011;9635;52.078;8.648;2023-03-01T19:03:47;30.30;;;17.55;;
19004;SDS011;9635;52.078;8.648;2023-03-01T19:08:52;30.65;;;18.25;;
19004;SDS011;9635;52.078;8.648;2023-03-01T19:13:56;30.10;;;16.20;;
19004;SDS011;9635;52.078;8.648;2023-03-01T19:18:59;26.38;;;13.70;;
19004;SDS011;9635;52.078;8.648;2023-03-01T19:24:05;23.17;;;12.50;;
19004;SDS011;9635;52.078;8.648;2023-03-01T19:29:08;23.88;;;13.15;;
19004;SDS011;9635;52.078;8.648;2023-03-01T19:34:11;18.63;;;9.23;;
19004;SDS011;9635;52.078;8.648;2023-03-01T19:39:15;19.77;;;10.57;;
19004;SDS011;9635;52.078;8.648;2023-03-01T19:44:18;16.42;;;8.43;;
19004;SDS011;9635;52.078;8.648;2023-03-01T19:49:25;13.80;;;7.53;;
19004;SDS011;9635;52.078;8.648;2023-03-01T19:54:31;12.90;;;7.18;;
19004;SDS011;9635;52.078;8.648;2023-03-01T19:59:34;17.00;;;8.10;;
19004;SDS011;9635;52.078;8.648;2023-03-01T20:04:37;18.73;;;10.88;;
19004;SDS011;9635;52.078;8.648;2023-03-01T20:09:41;17.10;;;9.23;;
19004;SDS011;9635;52.078;8.648;2023-03-01T20:14:44;20.63;;;8.00;;
19004;SDS011;9635;52.078;8.648;2023-03-01T20:19:49;12.20;;;7.45;;
19004;SDS011;9635;52.078;8.648;2023-03-01T20:24:53;16.58;;;8.70;;
19004;SDS011;9635;52.078;8.648;2023-03-01T20:29:56;17.58;;;11.10;;
19004;SDS011;9635;52.078;8.648;2023-03-01T20:34:59;21.52;;;11.95;;
19004;SDS011;9635;52.078;8.648;2023-03-01T20:40:05;21.15;;;11.55;;
19004;SDS011;9635;52.078;8.648;2023-03-01T20:45:10;17.38;;;9.90;;
19004;SDS011;9635;52.078;8.648;2023-03-01T20:50:13;18.65;;;10.27;;
19004;SDS011;9635;52.078;8.648;2023-03-01T20:55:17;21.38;;;10.25;;
19004;SDS011;9635;52.078;8.648;2023-03-01T21:00:20;13.57;;;7.60;;
19004;SDS011;9635;52.078;8.648;2023-03-01T21:05:23;13.60;;;8.82;;
19004;SDS011;9635;52.078;8.648;2023-03-01T21:10:27;18.15;;;9.65;;
19004;SDS011;9635;52.078;8.648;2023-03-01T21:15:31;16.50;;;7.47;;
19004;SDS011;9635;52.078;8.648;2023-03-01T21:20:33;13.00;;;8.00;;
19004;SDS011;9635;52.078;8.648;2023-03-01T21:25:44;16.48;;;8.80;;
19004;SDS011;9635;52.078;8.648;2023-03-01T21:30:47;15.60;;;8.82;;
19004;SDS011;9635;52.078;8.648;2023-03-01T21:35:50;15.98;;;8.57;;
19004;SDS011;9635;52.078;8.648;2023-03-01T21:40:54;13.43;;;7.80;;
19004;SDS011;9635;52.078;8.648;2023-03-01T21:45:59;14.38;;;8.25;;
19004;SDS011;9635;52.078;8.648;2023-03-01T21:51:02;11.48;;;7.13;;
19004;SDS011;9635;52.078;8.648;2023-03-01T21:56:07;12.75;;;7.70;;
19004;SDS011;9635;52.078;8.648;2023-03-01T22:01:12;16.65;;;8.00;;
19004;SDS011;9635;52.078;8.648;2023-03-01T22:06:34;10.35;;;6.22;;
19004;SDS011;9635;52.078;8.648;2023-03-01T22:11:42;15.18;;;8.02;;
19004;SDS011;9635;52.078;8.648;2023-03-01T22:16:47;12.30;;;6.80;;
19004;SDS011;9635;52.078;8.648;2023-03-01T22:21:51;14.18;;;7.45;;
19004;SDS011;9635;52.078;8.648;2023-03-01T22:26:56;12.95;;;6.80;;
19004;SDS011;9635;52.078;8.648;2023-03-01T22:31:58;13.75;;;6.75;;
19004;SDS011;9635;52.078;8.648;2023-03-01T22:37:02;12.65;;;6.65;;
19004;SDS011;9635;52.078;8.648;2023-03-01T22:42:06;17.08;;;6.75;;
19004;SDS011;9635;52.078;8.648;2023-03-01T22:47:10;12.98;;;6.72;;
19004;SDS011;9635;52.078;8.648;2023-03-01T22:52:13;11.63;;;6.75;;
19004;SDS011;9635;52.078;8.648;2023-03-01T22:57:17;12.05;;;6.93;;
19004;SDS011;9635;52.078;8.648;2023-03-01T23:02:19;17.15;;;6.75;;
19004;SDS011;9635;52.078;8.648;2023-03-01T23:07:23;11.45;;;6.70;;
19004;SDS011;9635;52.078;8.648;2023-03-01T23:12:27;11.93;;;6.93;;
19004;SDS011;9635;52.078;8.648;2023-03-01T23:17:30;16.27;;;8.00;;
19004;SDS011;9635;52.078;8.648;2023-03-01T23:22:34;13.10;;;7.70;;
19004;SDS011;9635;52.078;8.648;2023-03-01T23:27:38;15.50;;;8.00;;
19004;SDS011;9635;52.078;8.648;2023-03-01T23:32:41;11.60;;;7.32;;
19004;SDS011;9635;52.078;8.648;2023-03-01T23:37:43;17.95;;;8.63;;
19004;SDS011;9635;52.078;8.648;2023-03-01T23:42:48;16.70;;;7.55;;
19004;SDS011;9635;52.078;8.648;2023-03-01T23:47:51;12.27;;;6.57;;
19004;SDS011;9635;52.078;8.648;2023-03-01T23:52:55;12.07;;;6.97;;
19004;SDS011;9635;52.078;8.648;2023-03-01T23:57:59;16.45;;;6.90;;
